Terminal Aerodrome Forecast
Issued by NWS

Home | Current Version | Previous Version | Text Only | Print | Product List | Glossary On
Versions: 1 2 3 4 5 6 7 8 9 10 11 12 13 14 15 16 17 18 19 20
000
FTUS43 KDLH 310405 AAA
TAFHIB
TAF AMD
KHIB 310405Z 3104/3124 29004KT P6SM SKC WS020/31030KT
     FM311000 28005KT P6SM SKC
     FM311600 31012G20KT P6SM SCT060
     FM311800 30014G24KT P6SM VCTS SCT060CB=

USA.gov is the U.S. government's official web portal to all federal, state and local government web resources and services.